WAJJ/DJJ METAR and TAF weather

Enter ICAO airport designator
Station Type Date Time Source
WAJJ METAR 2019/02/15 02:30 UTC NOAA

WAJJ 150230Z 28016KT 9999 SCT013 29/22 Q1012 NOSIG


Station Type Date Time Source
WAJJ Decoded METAR 2019/02/15 02:30 UTC NOAA

Jayapura / Sentani, Indonesia (WAJJ) 02-34S 140-29E 99M
Feb 14, 2019 - 09:30 PM EST / 2019.02.15 0230 UTC
Wind: from the W (280 degrees) at 18 MPH (16 KT):0
Visibility: greater than 7 mile(s):0
Sky conditions: partly cloudy
Temperature: 84 F (29 C)
Dew Point: 71 F (22 C)
Relative Humidity: 65%
Pressure (altimeter): 29.88 in. Hg (1012 hPa)
ob: WAJJ 150230Z 28016KT 9999 SCT013 29/22 Q1012 NOSIG
cycle: 2

Station Type Date Time Source
WAJJ TAF 2013/03/11 12:00 UTC NOAA

TAF WAJJ 111100Z 1112/1212 29006KT 5000 HZ SCT016
TEMPO 1113/1121 4000 RA FEW014CB
BECMG 1200/1202 28012KT 9999
TEMPO 1207/1212 6000 RA FEW014CB


Example: see airport list